createdAt,value
2023-05-10T00:00:45.230Z,18.58
2023-05-10T00:01:45.134Z,18.59
2023-05-10T00:02:45.106Z,18.56
2023-05-10T00:03:45.045Z,18.50
2023-05-10T00:04:44.932Z,18.47
2023-05-10T00:05:44.854Z,18.53
2023-05-10T00:06:44.785Z,18.41
2023-05-10T00:07:44.724Z,18.52
2023-05-10T00:08:44.693Z,18.45
2023-05-10T00:09:44.587Z,18.50
2023-05-10T00:10:44.520Z,18.45
2023-05-10T00:11:44.468Z,18.47
2023-05-10T00:12:44.501Z,18.45
2023-05-10T00:13:44.341Z,18.45
2023-05-10T00:14:44.286Z,18.40
2023-05-10T00:15:44.330Z,18.37
2023-05-10T00:16:44.226Z,18.37
2023-05-10T00:17:44.122Z,18.40
2023-05-10T00:18:44.023Z,18.43
2023-05-10T00:19:43.956Z,18.41
2023-05-10T00:20:43.875Z,18.40
2023-05-10T00:21:43.809Z,18.40
2023-05-10T00:22:43.780Z,18.35
2023-05-10T00:23:43.689Z,18.41
2023-05-10T00:24:43.646Z,18.41
2023-05-10T00:25:43.560Z,18.35
2023-05-10T00:26:43.509Z,18.38
2023-05-10T00:27:43.474Z,18.26
2023-05-10T06:57:31.330Z,37.28
2023-05-10T06:58:20.628Z,37.39
2023-05-10T06:59:20.603Z,37.51
2023-05-10T07:00:20.812Z,37.49
2023-05-10T07:01:20.614Z,37.60
2023-05-10T07:02:20.450Z,37.65
2023-05-10T07:03:20.573Z,37.68
2023-05-10T07:04:20.305Z,37.87
2023-05-10T07:05:20.539Z,38.04
2023-05-10T07:06:32.285Z,38.12
2023-05-10T07:07:20.118Z,38.14
2023-05-10T07:08:20.068Z,38.21
2023-05-10T07:09:19.989Z,38.20
2023-05-10T07:10:19.918Z,38.27
2023-05-10T07:11:19.856Z,38.39
2023-05-10T07:12:19.858Z,38.45
2023-05-10T07:13:19.812Z,38.71
2023-05-10T07:14:19.718Z,38.97
2023-05-10T07:15:19.722Z,39.37
2023-05-10T07:16:19.617Z,39.71
2023-05-10T07:17:19.602Z,40.00
2023-05-10T07:18:19.487Z,40.35
2023-05-10T07:19:19.427Z,40.47
